Time;durP1;ratioP1;P1;durP2;ratioP2;P2;SDS_P1;SDS_P2;PMS_P1;PMS_P2;Temp;Humidity;BMP_temperature;BMP_pressure;BME280_temperature;BME280_humidity;BME280_pressure;Samples;Min_cycle;Max_cycle;Signal;HPM_P1;HPM_P2
2022/02/20 00:00:55;;;;;;;5.60;2.90;;;4.60;99.90;;;;;;6217308;23;20496;-64
2022/02/20 00:03:21;;;;;;;5.03;2.92;;;4.50;99.90;;;;;;6217186;23;20202;-64
2022/02/20 00:05:46;;;;;;;5.43;2.97;;;4.50;99.90;;;;;;6217305;23;20160;-65
2022/02/20 00:08:12;;;;;;;4.75;2.95;;;4.40;99.90;;;;;;6217049;23;20564;-65
2022/02/20 00:10:38;;;;;;;5.63;2.70;;;4.40;99.90;;;;;;6217294;23;20164;-65
2022/02/20 00:13:04;;;;;;;6.45;3.10;;;4.40;99.90;;;;;;6216666;23;20149;-64
2022/02/20 00:15:31;;;;;;;7.30;3.15;;;4.40;99.90;;;;;;6216931;23;20223;-64
2022/02/20 00:17:57;;;;;;;4.43;2.80;;;4.40;99.90;;;;;;6216818;23;20469;-65
2022/02/20 00:20:25;;;;;;;7.13;3.00;;;4.30;99.90;;;;;;6217414;23;20141;-65
2022/02/20 00:22:51;;;;;;;5.45;2.78;;;4.30;99.90;;;;;;6217392;23;20151;-65
2022/02/20 00:25:17;;;;;;;4.13;2.80;;;4.30;99.90;;;;;;6217493;23;20145;-65
2022/02/20 00:27:42;;;;;;;5.97;2.90;;;4.20;99.90;;;;;;6216840;23;20596;-65
2022/02/20 00:30:08;;;;;;;4.00;2.67;;;4.20;99.90;;;;;;6217324;23;20145;-65
2022/02/20 00:32:33;;;;;;;5.32;2.50;;;4.20;99.90;;;;;;6216973;23;20231;-64
2022/02/20 00:34:59;;;;;;;4.45;2.40;;;4.20;99.90;;;;;;6216750;23;20545;-65
2022/02/20 00:37:24;;;;;;;3.47;2.05;;;4.20;99.90;;;;;;6216157;23;20634;-65
2022/02/20 00:39:50;;;;;;;4.28;2.30;;;4.20;99.90;;;;;;6216673;23;20156;-65
2022/02/20 00:42:15;;;;;;;6.75;2.63;;;4.20;99.90;;;;;;6216132;23;20151;-65
2022/02/20 00:44:41;;;;;;;5.00;2.50;;;4.20;99.90;;;;;;6216146;23;20145;-65
2022/02/20 00:47:06;;;;;;;6.85;2.42;;;4.20;99.90;;;;;;6215950;23;20549;-65
2022/02/20 00:49:32;;;;;;;5.07;2.67;;;4.20;99.90;;;;;;6216088;23;20141;-65
2022/02/20 00:51:57;;;;;;;4.50;2.38;;;4.20;99.90;;;;;;6216466;23;20145;-65
2022/02/20 00:54:23;;;;;;;3.35;2.45;;;4.20;99.90;;;;;;6216139;23;20218;-65
2022/02/20 00:56:49;;;;;;;2.85;2.40;;;4.20;99.90;;;;;;6215963;23;20168;-65
2022/02/20 00:59:14;;;;;;;3.95;2.47;;;4.20;99.90;;;;;;6216136;23;20144;-65
2022/02/20 01:01:41;;;;;;;4.40;2.20;;;4.20;99.90;;;;;;6216022;23;20503;-65
2022/02/20 01:04:08;;;;;;;4.82;2.17;;;4.20;99.90;;;;;;6216393;23;20165;-64
2022/02/20 01:06:33;;;;;;;4.78;2.53;;;4.10;99.90;;;;;;6215927;23;20471;-65
2022/02/20 01:08:59;;;;;;;4.57;2.13;;;4.10;99.90;;;;;;6216359;23;20187;-65
2022/02/20 01:11:24;;;;;;;5.45;2.50;;;4.10;99.90;;;;;;6215973;23;20145;-65
2022/02/20 01:13:50;;;;;;;7.60;2.50;;;4.10;99.90;;;;;;6214792;23;20156;-65
2022/02/20 01:16:15;;;;;;;5.40;2.40;;;4.10;99.90;;;;;;6216354;23;20168;-65
2022/02/20 01:18:41;;;;;;;3.10;2.13;;;4.00;99.90;;;;;;6215891;23;20148;-66
2022/02/20 01:21:06;;;;;;;4.00;2.13;;;4.00;99.90;;;;;;6216297;23;20156;-65
2022/02/20 01:23:32;;;;;;;4.25;2.20;;;4.00;99.90;;;;;;6215923;23;20144;-65
2022/02/20 01:25:57;;;;;;;3.85;2.55;;;4.00;99.90;;;;;;6217202;23;20137;-65
2022/02/20 01:28:23;;;;;;;5.60;2.30;;;4.00;99.90;;;;;;6217994;23;20435;-65
2022/02/20 01:30:49;;;;;;;2.95;1.98;;;4.00;99.90;;;;;;6218100;23;20164;-64
2022/02/20 01:33:14;;;;;;;5.05;2.00;;;4.00;99.90;;;;;;6217832;23;20125;-65
2022/02/20 01:35:41;;;;;;;3.15;1.83;;;4.00;99.90;;;;;;6217975;23;20148;-65
2022/02/20 01:38:06;;;;;;;2.92;1.85;;;4.00;99.90;;;;;;6217701;23;20600;-65
2022/02/20 01:40:32;;;;;;;6.63;2.47;;;3.90;99.90;;;;;;6217887;23;20137;-63
2022/02/20 01:42:58;;;;;;;6.13;2.28;;;3.90;99.90;;;;;;6217793;23;20195;-64
2022/02/20 01:45:23;;;;;;;5.78;2.15;;;3.90;99.90;;;;;;6217788;23;20145;-64
2022/02/20 01:47:49;;;;;;;5.38;2.30;;;3.90;99.90;;;;;;6216650;23;20433;-64
2022/02/20 01:50:16;;;;;;;5.25;2.00;;;3.90;99.90;;;;;;6217775;23;20145;-64
2022/02/20 01:52:42;;;;;;;5.97;1.95;;;3.90;99.90;;;;;;6217944;23;20206;-64
2022/02/20 01:55:08;;;;;;;4.50;1.92;;;3.90;99.90;;;;;;6217730;23;20464;-65
2022/02/20 01:57:36;;;;;;;3.03;1.80;;;3.90;99.90;;;;;;6217805;23;20239;-64
2022/02/20 02:00:03;;;;;;;1.95;1.60;;;3.90;99.90;;;;;;6217668;23;20187;-64
2022/02/20 02:02:29;;;;;;;3.97;2.10;;;3.90;99.90;;;;;;6217614;23;20231;-65
2022/02/20 02:04:54;;;;;;;6.63;1.90;;;3.90;99.90;;;;;;6217756;23;20155;-65
2022/02/20 02:07:20;;;;;;;3.50;1.83;;;3.90;99.90;;;;;;6217642;23;20159;-65
2022/02/20 02:09:45;;;;;;;3.22;1.63;;;3.90;99.90;;;;;;6218172;23;20446;-65
2022/02/20 02:12:11;;;;;;;3.70;1.60;;;3.90;99.90;;;;;;6218029;23;20530;-65
2022/02/20 02:14:57;;;;;;;4.55;1.70;;;3.80;99.90;;;;;;6217617;23;20140;-65
2022/02/20 02:17:23;;;;;;;3.15;1.60;;;3.80;99.90;;;;;;6217622;23;20173;-65
2022/02/20 02:19:49;;;;;;;3.97;1.40;;;3.80;99.90;;;;;;6217758;23;20173;-65
2022/02/20 02:22:18;;;;;;;5.15;2.00;;;3.80;99.90;;;;;;6217669;23;20141;-66
2022/02/20 02:24:44;;;;;;;4.88;1.77;;;3.80;99.90;;;;;;6217747;23;20171;-66
2022/02/20 02:27:12;;;;;;;3.00;2.20;;;3.80;99.90;;;;;;6217381;23;20617;-66
2022/02/20 02:29:38;;;;;;;5.95;1.42;;;3.80;99.90;;;;;;6217184;23;20521;-66
2022/02/20 02:32:03;;;;;;;4.10;1.70;;;3.80;99.90;;;;;;6217237;23;20188;-65
2022/02/20 02:34:30;;;;;;;2.45;1.50;;;3.80;99.90;;;;;;6217269;23;20148;-65
2022/02/20 02:36:55;;;;;;;3.25;1.58;;;3.80;99.90;;;;;;6217315;23;20276;-64
2022/02/20 02:39:21;;;;;;;3.45;1.73;;;3.80;99.90;;;;;;6217196;23;20538;-65
2022/02/20 02:41:47;;;;;;;2.28;1.80;;;3.80;99.90;;;;;;6217603;23;20151;-66
2022/02/20 02:44:12;;;;;;;2.97;1.60;;;3.80;99.90;;;;;;6217161;23;20145;-66
2022/02/20 02:46:37;;;;;;;3.30;1.65;;;3.80;99.90;;;;;;6217240;23;20148;-65
2022/02/20 02:49:04;;;;;;;4.07;1.80;;;3.80;99.90;;;;;;6217487;23;20203;-65
2022/02/20 02:51:30;;;;;;;2.55;1.60;;;3.80;99.90;;;;;;6217577;23;20164;-66
2022/02/20 02:53:56;;;;;;;3.70;2.03;;;3.80;99.90;;;;;;6215987;23;20145;-66
2022/02/20 02:56:22;;;;;;;3.50;1.60;;;3.80;99.90;;;;;;6217493;23;20149;-65
2022/02/20 02:58:47;;;;;;;6.45;1.67;;;3.80;99.90;;;;;;6217044;23;20227;-65
2022/02/20 03:01:13;;;;;;;3.92;1.60;;;3.80;99.90;;;;;;6217105;23;20228;-65
2022/02/20 03:03:39;;;;;;;4.43;1.40;;;3.80;99.90;;;;;;6216874;23;20173;-66
2022/02/20 03:06:13;;;;;;;4.57;1.73;;;3.80;99.90;;;;;;6217145;23;20453;-66
2022/02/20 03:08:38;;;;;;;3.72;1.70;;;3.80;99.90;;;;;;6216951;23;20161;-65
2022/02/20 03:11:05;;;;;;;4.93;1.80;;;3.80;99.90;;;;;;6216940;23;20187;-65
2022/02/20 03:13:31;;;;;;;4.43;1.80;;;3.80;99.90;;;;;;6217402;23;20180;-65
2022/02/20 03:15:57;;;;;;;8.65;1.83;;;3.80;99.90;;;;;;6217015;23;20149;-65
2022/02/20 03:18:23;;;;;;;3.33;1.67;;;3.80;99.90;;;;;;6217054;23;20650;-65
2022/02/20 03:20:48;;;;;;;3.85;1.65;;;3.80;99.90;;;;;;6217215;23;20184;-65
2022/02/20 03:23:14;;;;;;;3.15;1.73;;;3.80;99.90;;;;;;6217000;23;20579;-65
2022/02/20 03:25:39;;;;;;;2.72;1.75;;;3.80;99.90;;;;;;6217476;23;20156;-65
2022/02/20 03:28:05;;;;;;;4.53;1.45;;;3.80;99.90;;;;;;6216894;23;20203;-65
2022/02/20 03:30:31;;;;;;;5.45;2.45;;;3.80;99.90;;;;;;6217246;23;20145;-65
2022/02/20 03:32:57;;;;;;;3.63;1.83;;;3.80;99.90;;;;;;6216761;23;20226;-66
2022/02/20 03:35:23;;;;;;;4.80;1.70;;;3.80;99.90;;;;;;6215621;23;20149;-66
2022/02/20 03:37:49;;;;;;;4.47;1.90;;;3.80;99.90;;;;;;6217014;23;20173;-65
2022/02/20 03:40:14;;;;;;;3.90;1.80;;;3.70;99.90;;;;;;6215701;23;20444;-66
2022/02/20 03:42:40;;;;;;;3.70;1.75;;;3.80;99.90;;;;;;6217023;23;20452;-66
2022/02/20 03:45:06;;;;;;;6.75;2.60;;;3.80;99.90;;;;;;6216847;23;20557;-66
2022/02/20 03:47:32;;;;;;;2.63;1.60;;;3.80;99.90;;;;;;6216687;23;20195;-66
2022/02/20 03:49:58;;;;;;;1.83;1.40;;;3.80;99.90;;;;;;6217147;23;20140;-66
2022/02/20 03:52:23;;;;;;;4.97;1.70;;;3.80;99.90;;;;;;6216754;23;20145;-66
2022/02/20 03:54:49;;;;;;;3.25;1.90;;;3.80;99.90;;;;;;6216541;23;20438;-66
2022/02/20 03:57:14;;;;;;;3.13;1.83;;;3.80;99.90;;;;;;6216478;23;20167;-65
2022/02/20 03:59:40;;;;;;;3.80;1.88;;;3.80;99.90;;;;;;6216668;23;20141;-65
2022/02/20 04:02:06;;;;;;;4.25;2.08;;;3.80;99.90;;;;;;6217048;23;20140;-65
2022/02/20 04:04:31;;;;;;;4.05;1.90;;;3.80;99.90;;;;;;6216645;23;20207;-65
2022/02/20 04:06:57;;;;;;;5.72;2.08;;;3.80;99.90;;;;;;6216793;23;20184;-66
2022/02/20 04:09:22;;;;;;;2.33;1.92;;;3.70;99.90;;;;;;6216872;23;20156;-65
2022/02/20 04:11:48;;;;;;;5.05;2.15;;;3.70;99.90;;;;;;6225481;23;20196;-66
2022/02/20 04:14:13;;;;;;;5.65;2.10;;;3.70;99.90;;;;;;6223320;23;20167;-66
2022/02/20 04:16:39;;;;;;;4.78;2.00;;;3.70;99.90;;;;;;6216666;23;20176;-66
2022/02/20 04:19:04;;;;;;;4.20;2.13;;;3.70;99.90;;;;;;6216352;23;20141;-66
2022/02/20 04:21:30;;;;;;;3.13;1.70;;;3.70;99.90;;;;;;6216674;23;20199;-66
2022/02/20 04:23:55;;;;;;;2.03;1.80;;;3.70;99.90;;;;;;6216360;23;20171;-66
2022/02/20 04:26:21;;;;;;;3.50;1.90;;;3.60;99.90;;;;;;6216321;23;20473;-66
2022/02/20 04:28:47;;;;;;;3.58;2.10;;;3.60;99.90;;;;;;6215337;23;20141;-66
2022/02/20 04:31:13;;;;;;;3.30;2.00;;;3.60;99.90;;;;;;6216175;23;20153;-66
2022/02/20 04:33:38;;;;;;;5.00;1.90;;;3.70;99.90;;;;;;6216297;23;20163;-66
2022/02/20 04:36:04;;;;;;;5.32;2.00;;;3.60;99.90;;;;;;6216962;23;20163;-66
2022/02/20 04:38:30;;;;;;;2.78;2.10;;;3.70;99.90;;;;;;6216528;23;20204;-66
2022/02/20 04:40:56;;;;;;;2.97;1.88;;;3.60;99.90;;;;;;6216234;23;20140;-66
2022/02/20 04:43:22;;;;;;;5.28;2.15;;;3.60;99.90;;;;;;6216213;23;20149;-66
2022/02/20 04:45:47;;;;;;;3.38;2.33;;;3.60;99.90;;;;;;6216247;23;20141;-66
2022/02/20 04:48:13;;;;;;;4.93;2.25;;;3.60;99.90;;;;;;6216613;23;20152;-66
2022/02/20 04:50:38;;;;;;;4.32;2.38;;;3.60;99.90;;;;;;6216212;23;20561;-66
2022/02/20 04:53:04;;;;;;;3.03;2.55;;;3.60;99.90;;;;;;6216624;23;20415;-65
2022/02/20 04:55:30;;;;;;;3.05;2.75;;;3.60;99.90;;;;;;6216468;23;20164;-65
2022/02/20 04:57:55;;;;;;;3.20;2.58;;;3.60;99.90;;;;;;6216740;23;20199;-65
2022/02/20 05:00:21;;;;;;;3.40;2.85;;;3.50;99.90;;;;;;6216134;23;20155;-65
2022/02/20 05:02:47;;;;;;;4.47;2.53;;;3.50;99.90;;;;;;6215568;23;20176;-65
2022/02/20 05:05:12;;;;;;;4.10;2.70;;;3.50;99.90;;;;;;6216337;23;20446;-65
2022/02/20 05:07:38;;;;;;;2.97;2.47;;;3.50;99.90;;;;;;6216078;23;20145;-65
2022/02/20 05:10:04;;;;;;;4.15;2.70;;;3.50;99.90;;;;;;6216325;23;20141;-65
2022/02/20 05:12:30;;;;;;;3.47;2.50;;;3.50;99.90;;;;;;6216105;23;20576;-65
2022/02/20 05:14:55;;;;;;;3.97;2.80;;;3.60;99.90;;;;;;6215781;23;20168;-66
2022/02/20 05:17:21;;;;;;;3.47;2.80;;;3.60;99.90;;;;;;6215952;23;20168;-66
2022/02/20 05:19:47;;;;;;;2.88;2.63;;;3.60;99.90;;;;;;6216284;23;20137;-66
2022/02/20 05:22:12;;;;;;;4.43;2.45;;;3.60;99.90;;;;;;6216100;23;20141;-66
2022/02/20 05:24:38;;;;;;;4.30;2.30;;;3.50;99.90;;;;;;6215936;23;20211;-66
2022/02/20 05:27:03;;;;;;;3.60;2.72;;;3.50;99.90;;;;;;6215930;23;20141;-66
2022/02/20 05:29:29;;;;;;;4.90;2.67;;;3.50;99.90;;;;;;6215798;23;20142;-66
2022/02/20 05:31:54;;;;;;;5.28;2.63;;;3.40;99.90;;;;;;6215798;23;20161;-66
2022/02/20 05:34:20;;;;;;;4.75;2.97;;;3.40;99.90;;;;;;6215893;23;20224;-66
2022/02/20 05:36:45;;;;;;;4.93;2.90;;;3.40;99.90;;;;;;6215689;23;20168;-66
2022/02/20 05:39:11;;;;;;;4.05;2.85;;;3.40;99.90;;;;;;6215874;23;20145;-66
2022/02/20 05:41:36;;;;;;;3.70;2.83;;;3.30;99.90;;;;;;6216157;23;20141;-66
2022/02/20 05:44:02;;;;;;;3.10;2.70;;;3.30;99.90;;;;;;6215881;23;20141;-66
2022/02/20 05:46:28;;;;;;;5.50;3.10;;;3.30;99.90;;;;;;6215688;23;20141;-66
2022/02/20 05:48:53;;;;;;;2.97;2.47;;;3.30;99.90;;;;;;6215935;23;20137;-66
2022/02/20 05:51:19;;;;;;;4.90;2.58;;;3.30;99.90;;;;;;6215680;23;20137;-66
2022/02/20 05:53:44;;;;;;;5.18;2.58;;;3.30;99.90;;;;;;6215882;23;20447;-66
2022/02/20 05:56:10;;;;;;;6.57;3.22;;;3.30;99.90;;;;;;6215675;23;20169;-66
2022/02/20 05:58:36;;;;;;;3.67;2.63;;;3.20;99.90;;;;;;6214531;23;20260;-66
2022/02/20 06:01:01;;;;;;;4.60;3.05;;;3.30;99.90;;;;;;6215700;23;20137;-66
2022/02/20 06:03:27;;;;;;;6.22;2.92;;;3.30;99.90;;;;;;6215946;23;20145;-66
2022/02/20 06:05:52;;;;;;;8.32;3.70;;;3.30;99.90;;;;;;6215611;23;20141;-66
2022/02/20 06:08:18;;;;;;;6.72;3.17;;;3.30;99.90;;;;;;6215730;23;20202;-66
2022/02/20 06:10:43;;;;;;;4.97;3.20;;;3.30;99.90;;;;;;6215705;23;20546;-66
2022/02/20 06:13:09;;;;;;;6.32;3.55;;;3.30;99.90;;;;;;6217623;23;20420;-66
2022/02/20 06:15:36;;;;;;;6.00;3.30;;;3.20;99.90;;;;;;6217932;23;20159;-66
2022/02/20 06:18:01;;;;;;;5.78;4.07;;;3.20;99.90;;;;;;6217711;23;20260;-66
2022/02/20 06:20:27;;;;;;;5.38;3.42;;;3.20;99.90;;;;;;6217818;23;20235;-66
2022/02/20 06:22:53;;;;;;;4.82;3.72;;;3.20;99.90;;;;;;6217475;23;20141;-66
2022/02/20 06:25:19;;;;;;;5.78;3.33;;;3.20;99.90;;;;;;6217387;23;20219;-66
2022/02/20 06:27:44;;;;;;;5.18;3.67;;;3.20;99.90;;;;;;6217535;23;20159;-66
2022/02/20 06:30:10;;;;;;;5.45;4.05;;;3.20;99.90;;;;;;6217412;23;20173;-66
2022/02/20 06:32:36;;;;;;;6.05;3.90;;;3.20;99.90;;;;;;6217432;23;20593;-66
2022/02/20 06:35:01;;;;;;;5.55;3.20;;;3.30;99.90;;;;;;6217627;23;20155;-66
2022/02/20 06:37:26;;;;;;;5.25;3.70;;;3.30;99.90;;;;;;6217414;23;20180;-66
2022/02/20 06:39:52;;;;;;;5.88;3.67;;;3.30;99.90;;;;;;6217463;23;20207;-66
2022/02/20 06:42:18;;;;;;;4.90;3.33;;;3.30;99.90;;;;;;6217254;23;20220;-66
2022/02/20 06:44:44;;;;;;;6.13;3.13;;;3.30;99.90;;;;;;6218075;23;20148;-65
2022/02/20 06:47:09;;;;;;;8.45;3.38;;;3.30;99.90;;;;;;6217359;23;20549;-66
2022/02/20 06:49:35;;;;;;;6.05;2.97;;;3.20;99.90;;;;;;6216299;23;20145;-66
2022/02/20 06:52:01;;;;;;;6.90;3.83;;;3.20;99.90;;;;;;6217141;23;20151;-65
2022/02/20 06:54:27;;;;;;;5.22;3.28;;;3.30;99.90;;;;;;6217783;23;20149;-65
2022/02/20 06:56:55;;;;;;;6.50;3.20;;;3.30;99.90;;;;;;6217385;23;20549;-65
2022/02/20 06:59:21;;;;;;;6.05;3.47;;;3.30;99.90;;;;;;6217161;23;20137;-65
2022/02/20 07:01:46;;;;;;;5.97;2.90;;;3.30;99.90;;;;;;6217035;23;20141;-65
2022/02/20 07:04:12;;;;;;;4.35;2.70;;;3.30;99.90;;;;;;6215998;23;20445;-65
2022/02/20 07:06:37;;;;;;;7.03;3.25;;;3.30;99.90;;;;;;6217623;23;20156;-66
2022/02/20 07:09:04;;;;;;;6.68;2.65;;;3.30;99.90;;;;;;6216212;23;20148;-65
2022/02/20 07:11:30;;;;;;;5.10;2.20;;;3.30;99.90;;;;;;6217164;23;20141;-64
2022/02/20 07:13:55;;;;;;;6.97;2.70;;;3.30;99.90;;;;;;6217710;23;20152;-64
2022/02/20 07:16:21;;;;;;;6.13;2.30;;;3.30;99.90;;;;;;6218083;23;20149;-64
2022/02/20 07:18:46;;;;;;;5.97;2.10;;;3.30;99.90;;;;;;6217673;23;20169;-65
2022/02/20 07:21:12;;;;;;;4.75;2.80;;;3.30;99.90;;;;;;6217509;23;20145;-66
2022/02/20 07:23:37;;;;;;;4.43;2.05;;;3.20;99.90;;;;;;6216472;23;20557;-66
2022/02/20 07:26:03;;;;;;;4.97;2.15;;;3.20;99.90;;;;;;6217484;23;20576;-66
2022/02/20 07:28:28;;;;;;;6.53;2.15;;;3.20;99.90;;;;;;6217280;23;20168;-66
2022/02/20 07:30:54;;;;;;;4.45;2.00;;;3.20;99.90;;;;;;6217484;23;20431;-66
2022/02/20 07:33:19;;;;;;;4.55;2.10;;;3.10;99.90;;;;;;6218312;23;20133;-64
2022/02/20 07:35:45;;;;;;;6.85;2.28;;;3.10;99.90;;;;;;6217710;23;20227;-64
2022/02/20 07:38:10;;;;;;;4.20;2.40;;;3.10;99.90;;;;;;6217819;23;20169;-64
2022/02/20 07:40:36;;;;;;;5.20;2.78;;;3.00;99.90;;;;;;6217481;23;20163;-64
2022/02/20 07:43:01;;;;;;;3.83;2.15;;;3.00;99.90;;;;;;6217557;23;20141;-64
2022/02/20 07:45:27;;;;;;;7.60;2.17;;;3.00;99.90;;;;;;6217765;23;20141;-63
2022/02/20 07:47:59;;;;;;;5.55;2.63;;;3.10;99.90;;;;;;6217053;23;20145;-64
2022/02/20 07:50:29;;;;;;;4.20;2.63;;;3.10;99.90;;;;;;6217404;23;20153;-64
2022/02/20 07:52:56;;;;;;;4.95;2.65;;;3.20;99.90;;;;;;6215876;23;20159;-64
2022/02/20 07:55:21;;;;;;;4.30;2.60;;;3.20;99.90;;;;;;6217205;23;20149;-64
2022/02/20 07:57:48;;;;;;;8.20;2.55;;;3.30;99.90;;;;;;6217034;23;20188;-63
2022/02/20 08:00:15;;;;;;;4.78;2.22;;;3.30;99.90;;;;;;6219147;23;20145;-62
2022/02/20 08:02:42;;;;;;;7.03;2.80;;;3.40;99.90;;;;;;6217346;23;20629;-63
2022/02/20 08:05:08;;;;;;;8.15;2.92;;;3.50;99.90;;;;;;6216285;23;20149;-63
2022/02/20 08:07:34;;;;;;;5.82;2.78;;;3.50;99.90;;;;;;6216930;23;20155;-63
2022/02/20 08:09:59;;;;;;;8.20;2.78;;;3.50;99.90;;;;;;6217806;23;20148;-63
2022/02/20 08:12:25;;;;;;;4.82;2.90;;;3.50;99.90;;;;;;6216786;23;20144;-63
2022/02/20 08:14:50;;;;;;;8.35;3.15;;;3.50;99.90;;;;;;6217078;23;20443;-63
2022/02/20 08:17:16;;;;;;;8.27;3.40;;;3.60;99.90;;;;;;6216682;23;20183;-63
2022/02/20 08:19:41;;;;;;;6.57;3.78;;;3.60;99.90;;;;;;6216709;23;20156;-63
2022/02/20 08:22:07;;;;;;;5.30;3.50;;;3.70;99.90;;;;;;6217835;23;20156;-63
2022/02/20 08:24:32;;;;;;;6.35;3.53;;;3.70;99.90;;;;;;6219736;23;20159;-63
2022/02/20 08:26:58;;;;;;;6.55;3.67;;;3.70;99.90;;;;;;6219269;23;20148;-64
2022/02/20 08:29:24;;;;;;;8.25;3.83;;;3.70;99.90;;;;;;6219708;23;20140;-64
2022/02/20 08:31:50;;;;;;;4.88;3.25;;;3.80;99.90;;;;;;6218991;23;20214;-63
2022/02/20 08:34:15;;;;;;;3.90;3.15;;;3.80;99.90;;;;;;6217940;23;20152;-64
2022/02/20 08:36:41;;;;;;;8.63;3.65;;;3.90;99.90;;;;;;6218282;23;20214;-63
2022/02/20 08:39:07;;;;;;;4.93;3.55;;;4.00;99.90;;;;;;6217120;23;20153;-63
2022/02/20 08:41:32;;;;;;;7.30;4.07;;;4.10;99.90;;;;;;6218159;23;20149;-64
2022/02/20 08:43:58;;;;;;;6.10;4.22;;;4.10;99.90;;;;;;6218815;23;20152;-64
2022/02/20 08:46:23;;;;;;;9.60;5.20;;;4.20;99.90;;;;;;6218638;23;20205;-64
2022/02/20 08:48:49;;;;;;;9.07;5.32;;;4.30;99.90;;;;;;6219088;23;20512;-64
2022/02/20 08:51:16;;;;;;;11.13;5.32;;;4.40;99.90;;;;;;6218008;23;20140;-63
2022/02/20 08:53:42;;;;;;;6.93;5.00;;;4.50;99.90;;;;;;6222280;23;20145;-63
2022/02/20 08:56:08;;;;;;;8.25;4.70;;;4.60;99.90;;;;;;6225343;23;20219;-64
2022/02/20 08:58:34;;;;;;;7.35;4.63;;;4.70;99.90;;;;;;6224475;23;20176;-63
2022/02/20 09:01:02;;;;;;;8.95;4.70;;;4.80;99.90;;;;;;6218393;23;20577;-63
2022/02/20 09:03:28;;;;;;;7.43;4.13;;;4.80;99.90;;;;;;6217062;23;20195;-63
2022/02/20 09:05:53;;;;;;;6.03;4.00;;;4.80;99.90;;;;;;6215991;23;20553;-63
2022/02/20 09:08:19;;;;;;;6.10;3.60;;;4.90;99.90;;;;;;6215875;23;20219;-63
2022/02/20 09:10:45;;;;;;;8.02;4.13;;;4.90;99.90;;;;;;6215888;23;20423;-64
2022/02/20 09:13:11;;;;;;;5.63;3.75;;;4.90;99.90;;;;;;6216095;23;20148;-64
2022/02/20 09:15:36;;;;;;;5.97;3.20;;;5.00;99.90;;;;;;6216357;23;20482;-64
2022/02/20 09:18:03;;;;;;;5.68;3.03;;;5.10;99.90;;;;;;6215882;23;20426;-64
2022/02/20 09:20:29;;;;;;;4.68;2.95;;;5.20;99.90;;;;;;6216214;23;20149;-64
2022/02/20 09:22:54;;;;;;;6.07;2.78;;;5.30;99.90;;;;;;6216014;23;20202;-64
2022/02/20 09:25:20;;;;;;;5.55;3.10;;;5.40;99.90;;;;;;6215814;23;20441;-65
2022/02/20 09:27:45;;;;;;;4.72;2.75;;;5.50;99.90;;;;;;6214883;23;20145;-65
2022/02/20 09:30:11;;;;;;;6.13;2.55;;;5.50;99.90;;;;;;6215928;23;20475;-65
2022/02/20 09:32:37;;;;;;;4.15;3.05;;;5.60;99.90;;;;;;6215764;23;20512;-66
2022/02/20 09:35:03;;;;;;;3.88;2.90;;;5.70;99.90;;;;;;6215957;23;20175;-66
2022/02/20 09:37:28;;;;;;;4.47;3.10;;;5.70;99.90;;;;;;6215942;23;20169;-66
2022/02/20 09:39:54;;;;;;;3.78;2.70;;;5.80;99.90;;;;;;6216194;23;20141;-66
2022/02/20 09:42:20;;;;;;;3.97;2.85;;;5.90;99.90;;;;;;6215473;23;20142;-66
2022/02/20 09:44:45;;;;;;;4.38;2.88;;;6.00;99.90;;;;;;6216346;23;20148;-66
2022/02/20 09:47:12;;;;;;;5.82;2.50;;;6.20;99.90;;;;;;6217367;23;20442;-65
2022/02/20 09:49:38;;;;;;;2.65;2.20;;;6.30;99.90;;;;;;6216462;23;20160;-66
2022/02/20 09:52:04;;;;;;;3.85;2.63;;;6.40;99.90;;;;;;6217704;23;20145;-66
2022/02/20 09:54:30;;;;;;;3.95;2.67;;;6.40;99.90;;;;;;6216658;23;20483;-66
2022/02/20 09:56:55;;;;;;;3.22;2.50;;;6.40;99.90;;;;;;6217555;23;20172;-66
2022/02/20 09:59:21;;;;;;;5.50;2.72;;;6.40;99.90;;;;;;6216664;23;20145;-66
2022/02/20 10:02:09;;;;;;;3.28;2.92;;;6.40;99.90;;;;;;6218466;23;20175;-66
2022/02/20 10:04:55;;;;;;;5.30;2.90;;;6.40;99.90;;;;;;6217805;23;20512;-66
2022/02/20 10:07:32;;;;;;;6.07;3.15;;;6.40;99.90;;;;;;6217667;23;20138;-66
2022/02/20 10:09:59;;;;;;;4.00;3.28;;;6.50;99.90;;;;;;6217740;23;20179;-66
2022/02/20 10:12:27;;;;;;;5.78;3.80;;;6.40;99.90;;;;;;6216517;23;20576;-66
2022/02/20 10:14:52;;;;;;;5.63;3.50;;;6.40;99.90;;;;;;6217970;23;20239;-66
2022/02/20 10:17:19;;;;;;;4.07;3.45;;;6.40;99.90;;;;;;6217822;23;20211;-66
2022/02/20 10:19:54;;;;;;;4.70;3.33;;;6.40;99.90;;;;;;6218020;23;20152;-66
2022/02/20 10:22:26;;;;;;;4.65;2.90;;;6.50;99.90;;;;;;6217636;23;20603;-66
2022/02/20 10:25:05;;;;;;;4.03;3.00;;;6.50;99.90;;;;;;6217756;23;20601;-66
2022/02/20 10:27:31;;;;;;;4.18;2.63;;;6.50;99.90;;;;;;6218314;23;20148;-66
2022/02/20 10:30:17;;;;;;;4.88;3.45;;;6.50;99.90;;;;;;6218461;23;20450;-66
2022/02/20 10:32:44;;;;;;;4.78;2.80;;;6.50;99.90;;;;;;6217721;23;20460;-65
2022/02/20 10:35:13;;;;;;;3.58;2.60;;;6.60;99.90;;;;;;6216279;23;20653;-65
2022/02/20 10:37:40;;;;;;;4.00;2.85;;;6.60;99.90;;;;;;6217659;23;20272;-66
2022/02/20 10:40:28;;;;;;;5.20;2.72;;;6.60;99.90;;;;;;6218114;23;20141;-65
2022/02/20 10:42:56;;;;;;;3.50;2.70;;;6.70;99.90;;;;;;6218213;23;20188;-67
2022/02/20 10:45:32;;;;;;;3.63;2.70;;;6.60;99.90;;;;;;6217092;23;20155;-66
2022/02/20 10:47:59;;;;;;;4.35;2.47;;;6.60;99.90;;;;;;6217763;23;20187;-66
2022/02/20 10:50:26;;;;;;;3.55;2.47;;;6.60;99.90;;;;;;6217355;23;20152;-66
2022/02/20 10:53:14;;;;;;;3.03;2.50;;;6.60;99.90;;;;;;6218090;23;20450;-67
2022/02/20 10:55:44;;;;;;;3.38;2.40;;;6.70;99.90;;;;;;6218002;23;20129;-65
2022/02/20 10:58:13;;;;;;;3.85;2.55;;;6.70;99.90;;;;;;6217495;23;20199;-65
2022/02/20 11:00:50;;;;;;;2.42;2.20;;;6.70;99.90;;;;;;6217606;23;20538;-66
2022/02/20 11:03:17;;;;;;;4.00;2.50;;;6.70;99.90;;;;;;6217971;23;20160;-65
2022/02/20 11:05:43;;;;;;;4.05;2.95;;;6.70;99.90;;;;;;6217669;23;20141;-65
2022/02/20 11:08:09;;;;;;;3.25;2.50;;;6.70;99.90;;;;;;6217397;23;20645;-65
2022/02/20 11:10:36;;;;;;;3.35;2.65;;;6.70;99.90;;;;;;6217496;23;20550;-65
2022/02/20 11:13:02;;;;;;;3.10;2.70;;;6.70;99.90;;;;;;6217097;23;20149;-65
2022/02/20 11:15:28;;;;;;;2.97;2.42;;;6.70;99.90;;;;;;6216391;23;20149;-65
2022/02/20 11:17:59;;;;;;;4.32;2.80;;;6.70;99.90;;;;;;6217855;23;20199;-65
2022/02/20 11:20:27;;;;;;;3.60;3.00;;;6.70;99.90;;;;;;6216815;23;20151;-65
2022/02/20 11:22:53;;;;;;;4.18;2.90;;;6.70;99.90;;;;;;6217740;23;20145;-65
2022/02/20 11:25:19;;;;;;;3.45;2.80;;;6.70;99.90;;;;;;6225289;23;20512;-66
2022/02/20 11:27:46;;;;;;;3.83;2.42;;;6.70;99.90;;;;;;6216260;23;20557;-65
2022/02/20 11:30:12;;;;;;;3.35;2.60;;;6.80;99.90;;;;;;6216113;23;20149;-65
2022/02/20 11:32:40;;;;;;;3.38;2.38;;;6.80;99.90;;;;;;6217105;23;20222;-66
2022/02/20 11:35:15;;;;;;;2.95;2.60;;;6.70;99.90;;;;;;6216351;23;20156;-65
2022/02/20 11:37:54;;;;;;;3.63;2.80;;;6.70;99.90;;;;;;6215725;23;20168;-65
2022/02/20 11:40:21;;;;;;;3.38;2.75;;;6.70;99.90;;;;;;6217131;23;20156;-65
2022/02/20 11:43:01;;;;;;;4.55;3.15;;;6.60;99.90;;;;;;6217190;23;20145;-65
2022/02/20 11:45:31;;;;;;;3.85;2.97;;;6.60;99.90;;;;;;6216475;23;20516;-65
2022/02/20 11:48:05;;;;;;;4.22;2.65;;;6.60;99.90;;;;;;6217009;23;20248;-65
2022/02/20 11:50:36;;;;;;;5.25;3.22;;;6.50;99.90;;;;;;6216942;23;20125;-65
2022/02/20 11:53:07;;;;;;;3.25;2.90;;;6.50;99.90;;;;;;6217104;23;20147;-65
2022/02/20 11:55:35;;;;;;;3.15;2.85;;;6.40;99.90;;;;;;6216788;23;20544;-65
2022/02/20 11:58:10;;;;;;;3.55;2.83;;;6.30;99.90;;;;;;6216415;23;20164;-65
2022/02/20 12:00:39;;;;;;;2.75;2.42;;;6.30;99.90;;;;;;6216861;23;20481;-66
2022/02/20 12:03:08;;;;;;;3.97;2.75;;;6.20;99.90;;;;;;6216430;23;20152;-65
2022/02/20 12:05:35;;;;;;;2.58;2.30;;;6.10;99.90;;;;;;6216710;23;20149;-65
2022/02/20 12:08:06;;;;;;;2.72;2.20;;;6.10;99.90;;;;;;6216698;23;20268;-64
2022/02/20 12:10:33;;;;;;;3.38;2.50;;;6.00;99.90;;;;;;6216488;23;20149;-64
2022/02/20 12:13:19;;;;;;;2.30;2.10;;;6.00;99.90;;;;;;6216859;23;20145;-65
2022/02/20 12:15:45;;;;;;;2.40;2.20;;;6.00;99.90;;;;;;6216295;23;20145;-65
2022/02/20 12:18:10;;;;;;;2.47;2.10;;;6.00;99.90;;;;;;6216233;23;20200;-64
2022/02/20 12:21:08;;;;;;;2.60;2.10;;;6.00;99.90;;;;;;6216299;23;20137;-64
2022/02/20 12:23:47;;;;;;;2.55;2.10;;;6.00;99.90;;;;;;6216450;23;20219;-64
2022/02/20 12:26:40;;;;;;;2.92;2.17;;;6.00;99.90;;;;;;6216231;23;20129;-64
2022/02/20 12:29:10;;;;;;;2.40;2.10;;;6.00;99.90;;;;;;6216356;23;20137;-64
2022/02/20 12:31:58;;;;;;;3.47;2.00;;;6.00;99.90;;;;;;6216379;23;20164;-64
2022/02/20 12:34:50;;;;;;;2.40;1.90;;;6.00;99.90;;;;;;6216270;23;20537;-64
2022/02/20 12:37:17;;;;;;;2.78;2.17;;;5.90;99.90;;;;;;6216449;23;20470;-66
2022/02/20 12:39:43;;;;;;;2.55;2.13;;;5.90;99.90;;;;;;6216176;23;20546;-67
2022/02/20 12:42:09;;;;;;;2.10;1.90;;;5.90;99.90;;;;;;6216201;23;20141;-66
2022/02/20 12:44:38;;;;;;;2.33;1.58;;;5.90;99.90;;;;;;6216106;23;20190;-66
2022/02/20 12:47:04;;;;;;;1.52;1.42;;;5.80;99.90;;;;;;6216409;23;20228;-66
2022/02/20 12:49:29;;;;;;;2.20;1.65;;;5.80;99.90;;;;;;6214688;23;20247;-66
2022/02/20 12:52:05;;;;;;;1.63;1.42;;;5.70;99.90;;;;;;6215938;23;20195;-66
2022/02/20 12:54:31;;;;;;;2.92;1.50;;;5.70;99.90;;;;;;6216211;23;20153;-66
2022/02/20 12:57:17;;;;;;;1.80;1.42;;;5.70;99.90;;;;;;6215971;23;20172;-67